Time;durP1;ratioP1;P1;durP2;ratioP2;P2;SDS_P1;SDS_P2;PMS_P1;PMS_P2;Temp;Humidity;BMP_temperature;BMP_pressure;BME280_temperature;BME280_humidity;BME280_pressure;Samples;Min_cycle;Max_cycle;Signal;HPM_P1;HPM_P2
2022/08/17 00:00:20;;;;;;;41.53;33.30;;;21.80;99.90;;;;;;5051000;28;20107;-62
2022/08/17 00:02:58;;;;;;;34.20;30.77;;;21.80;99.90;;;;;;5051659;28;20036;-63
2022/08/17 00:05:24;;;;;;;35.08;31.35;;;21.80;99.90;;;;;;5051674;28;20040;-63
2022/08/17 00:07:49;;;;;;;37.38;33.50;;;21.80;99.90;;;;;;5054938;28;20033;-63
2022/08/17 00:10:15;;;;;;;36.38;32.53;;;21.80;99.90;;;;;;5054957;28;20154;-63
2022/08/17 00:12:42;;;;;;;35.90;32.20;;;21.90;99.90;;;;;;5054616;28;20032;-63
2022/08/17 00:15:09;;;;;;;37.00;33.00;;;21.90;99.90;;;;;;5054642;28;20025;-63
2022/08/17 00:17:35;;;;;;;36.08;32.38;;;21.90;99.90;;;;;;5054488;28;20032;-63
2022/08/17 00:20:03;;;;;;;36.17;32.30;;;22.00;99.90;;;;;;5054163;28;20030;-63
2022/08/17 00:22:28;;;;;;;34.88;31.17;;;22.10;99.90;;;;;;5054271;28;20021;-64
2022/08/17 00:24:54;;;;;;;34.05;30.50;;;22.10;99.90;;;;;;5054361;28;20378;-62
2022/08/17 00:27:20;;;;;;;34.58;31.27;;;22.10;99.90;;;;;;5054307;28;20034;-63
2022/08/17 00:29:46;;;;;;;35.00;31.58;;;22.10;99.90;;;;;;5054461;28;20031;-62
2022/08/17 00:32:13;;;;;;;35.45;31.85;;;22.10;99.90;;;;;;5054101;28;20036;-63
2022/08/17 00:34:38;;;;;;;39.40;33.88;;;22.10;99.90;;;;;;5053990;28;20090;-63
2022/08/17 00:37:04;;;;;;;36.85;33.03;;;22.20;99.90;;;;;;5053737;28;20025;-63
2022/08/17 00:39:30;;;;;;;37.72;33.92;;;22.40;99.90;;;;;;5053987;28;20057;-62
2022/08/17 00:41:55;;;;;;;35.78;32.03;;;22.30;99.90;;;;;;5053664;28;20040;-62
2022/08/17 00:44:21;;;;;;;36.67;33.05;;;22.10;99.90;;;;;;5053605;28;20478;-63
2022/08/17 00:46:46;;;;;;;38.25;34.30;;;22.10;99.90;;;;;;5053820;28;20025;-63
2022/08/17 00:49:14;;;;;;;36.63;32.88;;;22.20;99.90;;;;;;5053822;28;20033;-63
2022/08/17 00:52:05;;;;;;;37.05;32.38;;;22.10;99.90;;;;;;5053857;28;20029;-63
2022/08/17 00:54:35;;;;;;;38.33;32.38;;;22.10;99.90;;;;;;5053571;28;20033;-63
2022/08/17 00:57:08;;;;;;;34.90;31.38;;;22.20;99.90;;;;;;5053919;28;20029;-63
2022/08/17 00:59:56;;;;;;;34.30;30.95;;;22.20;99.90;;;;;;5053491;28;20128;-63
2022/08/17 01:02:22;;;;;;;34.28;30.80;;;22.20;99.90;;;;;;5053434;28;20035;-63
2022/08/17 01:04:51;;;;;;;34.92;31.02;;;22.10;99.90;;;;;;5053155;28;20520;-62
2022/08/17 01:07:20;;;;;;;33.83;30.17;;;22.00;99.90;;;;;;5053308;28;20482;-63
2022/08/17 01:09:47;;;;;;;35.55;31.80;;;22.00;99.90;;;;;;5053550;28;20025;-63
2022/08/17 01:12:13;;;;;;;34.67;31.00;;;22.00;99.90;;;;;;5053451;28;20044;-63
2022/08/17 01:14:39;;;;;;;34.92;31.20;;;22.10;99.90;;;;;;5052110;28;20394;-63
2022/08/17 01:17:06;;;;;;;38.28;34.65;;;22.20;99.90;;;;;;5053383;28;20029;-63
2022/08/17 01:19:35;;;;;;;37.25;33.47;;;22.50;99.90;;;;;;5053392;28;20063;-63
2022/08/17 01:22:10;;;;;;;35.47;31.70;;;22.60;99.90;;;;;;5052941;28;20029;-63
2022/08/17 01:24:43;;;;;;;33.72;30.33;;;22.40;99.90;;;;;;5053041;28;20036;-63
2022/08/17 01:27:09;;;;;;;33.78;30.27;;;22.20;99.90;;;;;;5051881;28;20033;-64
2022/08/17 01:29:37;;;;;;;32.47;29.00;;;22.10;99.90;;;;;;5052918;28;20044;-64
2022/08/17 01:32:05;;;;;;;34.10;29.70;;;22.10;99.90;;;;;;5052632;28;20098;-63
2022/08/17 01:34:31;;;;;;;32.63;29.25;;;22.10;99.90;;;;;;5052902;28;20029;-63
2022/08/17 01:36:58;;;;;;;34.78;30.27;;;22.00;99.90;;;;;;5052568;28;20108;-63
2022/08/17 01:39:55;;;;;;;32.00;28.70;;;22.00;99.90;;;;;;5052790;28;20037;-63
2022/08/17 01:42:36;;;;;;;32.10;28.77;;;22.00;99.90;;;;;;5051927;28;20048;-63
2022/08/17 01:45:12;;;;;;;34.30;29.52;;;22.10;99.90;;;;;;5052320;28;20025;-63
2022/08/17 01:47:38;;;;;;;33.28;29.67;;;22.20;99.90;;;;;;5052185;28;20033;-63
2022/08/17 01:50:07;;;;;;;33.17;29.95;;;22.20;99.90;;;;;;5052607;28;20385;-63
2022/08/17 01:52:34;;;;;;;34.03;29.60;;;22.20;99.90;;;;;;5050969;28;20511;-63
2022/08/17 01:55:00;;;;;;;32.95;29.27;;;22.20;99.90;;;;;;5052522;28;20551;-63
2022/08/17 01:57:25;;;;;;;33.22;29.55;;;22.10;99.90;;;;;;5052416;28;20032;-63
2022/08/17 01:59:51;;;;;;;32.80;29.58;;;22.10;99.90;;;;;;5052331;28;20041;-63
2022/08/17 02:02:16;;;;;;;34.78;30.90;;;22.10;99.90;;;;;;5050719;28;20378;-62
2022/08/17 02:04:42;;;;;;;33.88;30.20;;;22.00;99.90;;;;;;5052075;28;20535;-63
2022/08/17 02:07:08;;;;;;;35.72;31.95;;;22.10;99.90;;;;;;5051906;28;20025;-63
2022/08/17 02:09:33;;;;;;;36.42;32.72;;;22.00;99.90;;;;;;5052468;28;20429;-64
2022/08/17 02:12:02;;;;;;;39.30;33.45;;;22.00;99.90;;;;;;5052078;28;20025;-63
2022/08/17 02:14:28;;;;;;;38.30;34.33;;;22.00;99.90;;;;;;5051838;28;20159;-63
2022/08/17 02:16:54;;;;;;;40.10;35.53;;;22.00;99.90;;;;;;5051792;28;20068;-64
2022/08/17 02:19:21;;;;;;;39.97;35.80;;;22.00;99.90;;;;;;5051837;28;20098;-63
2022/08/17 02:21:48;;;;;;;40.10;36.05;;;21.90;99.90;;;;;;5052141;28;20561;-64
2022/08/17 02:24:20;;;;;;;41.65;35.63;;;21.80;99.90;;;;;;5051618;28;20390;-63
2022/08/17 02:26:46;;;;;;;41.77;37.43;;;21.70;99.90;;;;;;5051796;28;20377;-64
2022/08/17 02:29:13;;;;;;;39.75;35.50;;;21.80;99.90;;;;;;5051393;28;20032;-64
2022/08/17 02:31:39;;;;;;;41.55;36.28;;;21.70;99.90;;;;;;5051453;28;20028;-64
2022/08/17 02:34:05;;;;;;;43.10;38.45;;;21.70;99.90;;;;;;5051506;28;20025;-63
2022/08/17 02:36:35;;;;;;;44.42;39.63;;;21.50;99.90;;;;;;5051602;28;20029;-63
2022/08/17 02:39:07;;;;;;;43.90;39.30;;;21.50;99.90;;;;;;5051539;28;20040;-63
2022/08/17 02:41:33;;;;;;;;;;;21.60;99.90;;;;;;5051932;28;20500;-63
2022/08/17 02:43:59;;;;;;;42.88;38.33;;;21.50;99.90;;;;;;5051536;28;19912;-64
2022/08/17 02:46:25;;;;;;;44.15;39.45;;;21.30;99.90;;;;;;5050927;28;20100;-63
2022/08/17 02:48:50;;;;;;;43.92;39.10;;;21.30;99.90;;;;;;5051306;28;20119;-63
2022/08/17 02:51:16;;;;;;;43.97;39.65;;;21.40;99.90;;;;;;5051484;28;20476;-62
2022/08/17 02:53:41;;;;;;;47.25;42.15;;;21.20;99.90;;;;;;5051146;28;20033;-63
2022/08/17 02:56:07;;;;;;;46.90;41.67;;;21.10;99.90;;;;;;5050943;28;20029;-62
2022/08/17 02:58:33;;;;;;;45.95;41.42;;;21.20;99.90;;;;;;5051111;28;20045;-63
2022/08/17 03:00:59;;;;;;;44.72;40.08;;;21.20;99.90;;;;;;5051051;28;20036;-62
2022/08/17 03:03:25;;;;;;;45.42;40.95;;;21.10;99.90;;;;;;5051105;28;20482;-63
2022/08/17 03:05:51;;;;;;;46.95;42.08;;;21.10;99.90;;;;;;5049420;28;20064;-63
2022/08/17 03:08:18;;;;;;;49.30;42.25;;;21.10;99.90;;;;;;5051405;28;20439;-62
2022/08/17 03:10:45;;;;;;;46.60;41.63;;;21.00;99.90;;;;;;5051074;28;20028;-63
2022/08/17 03:13:13;;;;;;;47.75;42.72;;;21.10;99.90;;;;;;5050804;28;20029;-67
2022/08/17 03:15:43;;;;;;;48.72;43.55;;;21.10;99.90;;;;;;5051509;28;20021;-63
2022/08/17 03:18:10;;;;;;;48.20;43.03;;;21.30;99.90;;;;;;5051157;28;20036;-63
2022/08/17 03:20:35;;;;;;;49.53;44.53;;;21.30;99.90;;;;;;5050785;28;20246;-63
2022/08/17 03:23:01;;;;;;;49.42;44.28;;;21.20;99.90;;;;;;5051025;28;20400;-63
2022/08/17 03:25:30;;;;;;;50.78;44.33;;;21.40;99.90;;;;;;5050910;28;20090;-63
2022/08/17 03:27:56;;;;;;;49.38;44.15;;;21.30;99.90;;;;;;5050978;28;20056;-63
2022/08/17 03:30:23;;;;;;;51.28;45.70;;;21.50;99.90;;;;;;5050971;28;20485;-63
2022/08/17 03:32:51;;;;;;;49.00;44.05;;;21.60;99.90;;;;;;5050956;28;20036;-63
2022/08/17 03:35:20;;;;;;;49.33;44.05;;;21.50;99.90;;;;;;5051130;28;20029;-63
2022/08/17 03:37:46;;;;;;;50.05;44.00;;;21.20;99.90;;;;;;5051224;28;20051;-62
2022/08/17 03:40:12;;;;;;;48.60;43.50;;;21.10;99.90;;;;;;5050891;28;20033;-63
2022/08/17 03:42:39;;;;;;;48.70;43.53;;;21.00;99.90;;;;;;5054017;28;20056;-62
2022/08/17 03:45:09;;;;;;;49.92;44.70;;;20.90;99.90;;;;;;5054588;28;20029;-63
2022/08/17 03:58:53;;;;;;;56.55;50.72;;;20.80;99.90;;;;;;5031729;28;20042;-62
2022/08/17 04:01:19;;;;;;;60.17;52.17;;;20.70;99.90;;;;;;5049665;28;20392;-63
2022/08/17 04:03:44;;;;;;;59.03;52.60;;;20.70;99.90;;;;;;5053997;28;20106;-63
2022/08/17 04:06:10;;;;;;;62.17;52.20;;;20.70;99.90;;;;;;5054117;28;20336;-63
2022/08/17 04:08:36;;;;;;;57.13;51.13;;;20.70;99.90;;;;;;5054077;28;20021;-63
2022/08/17 04:11:01;;;;;;;58.50;52.28;;;20.70;99.90;;;;;;5054159;28;20498;-62
2022/08/17 04:13:27;;;;;;;56.78;50.75;;;20.70;99.90;;;;;;5054232;28;20079;-62
2022/08/17 04:15:53;;;;;;;59.50;53.15;;;20.60;99.90;;;;;;5053877;28;20067;-62
2022/08/17 04:18:19;;;;;;;60.25;53.88;;;20.60;99.90;;;;;;5054197;28;20021;-61
2022/08/17 04:20:45;;;;;;;60.10;53.63;;;20.60;99.90;;;;;;5054191;28;20383;-62
2022/08/17 04:23:15;;;;;;;62.72;56.05;;;20.60;99.90;;;;;;5053716;28;20031;-61
2022/08/17 04:25:50;;;;;;;64.35;57.22;;;20.70;99.90;;;;;;5054213;28;20108;-62
2022/08/17 04:28:18;;;;;;;64.95;57.92;;;20.70;99.90;;;;;;5053867;28;20025;-62
2022/08/17 04:30:45;;;;;;;66.53;58.75;;;20.80;99.90;;;;;;5053703;28;20029;-61
2022/08/17 04:33:14;;;;;;;67.68;60.45;;;20.80;99.90;;;;;;5053786;28;20218;-62
2022/08/17 04:35:44;;;;;;;70.05;62.35;;;20.80;99.90;;;;;;5053871;28;20675;-62
2022/08/17 04:38:12;;;;;;;64.15;57.13;;;20.90;99.90;;;;;;5053932;28;20033;-64
2022/08/17 04:43:25;;;;;;;72.93;63.63;;;20.70;99.90;;;;;;5053688;28;20124;-61
2022/08/17 04:45:54;;;;;;;71.45;63.47;;;20.80;99.90;;;;;;5053473;28;20528;-63
2022/08/17 04:48:19;;;;;;;70.75;63.05;;;20.80;99.90;;;;;;5053876;28;20501;-62
2022/08/17 04:50:47;;;;;;;68.35;60.90;;;20.70;99.90;;;;;;5053783;28;20022;-63
2022/08/17 04:53:14;;;;;;;70.63;61.95;;;20.40;99.90;;;;;;5053022;28;20039;-62
2022/08/17 04:55:40;;;;;;;71.57;63.80;;;20.30;99.90;;;;;;5052718;28;20078;-64
2022/08/17 04:58:06;;;;;;;74.30;65.78;;;20.30;99.90;;;;;;5053579;28;20044;-62
2022/08/17 05:00:33;;;;;;;72.38;64.72;;;20.30;99.90;;;;;;5053137;28;20303;-62
2022/08/17 05:02:58;;;;;;;71.40;63.70;;;20.30;99.90;;;;;;5053493;28;20033;-62
2022/08/17 05:05:28;;;;;;;68.50;59.97;;;20.30;99.90;;;;;;5053676;28;20088;-62
2022/08/17 05:07:55;;;;;;;69.85;62.15;;;20.20;99.90;;;;;;5053042;28;20075;-62
2022/08/17 05:10:24;;;;;;;74.05;63.58;;;20.10;99.90;;;;;;5051482;28;20028;-62
2022/08/17 05:13:00;;;;;;;71.78;63.92;;;20.30;99.90;;;;;;5052875;28;20114;-63
2022/08/17 05:15:27;;;;;;;70.30;62.60;;;20.40;99.90;;;;;;5052780;28;20150;-63
2022/08/17 05:17:53;;;;;;;70.32;62.75;;;20.40;99.90;;;;;;5052978;28;20043;-63
2022/08/17 05:20:19;;;;;;;69.32;60.72;;;20.50;99.90;;;;;;5052479;28;20021;-63
2022/08/17 05:22:48;;;;;;;71.13;61.40;;;20.50;99.90;;;;;;5051178;28;20524;-63
2022/08/17 05:25:16;;;;;;;71.70;61.78;;;20.70;99.90;;;;;;5052293;28;20032;-63
2022/08/17 05:27:45;;;;;;;71.10;62.92;;;20.80;99.90;;;;;;5052311;28;20417;-64
2022/08/17 05:30:12;;;;;;;74.47;63.15;;;20.80;99.90;;;;;;5052814;28;20056;-61
2022/08/17 05:32:37;;;;;;;71.13;61.63;;;20.80;99.90;;;;;;5052266;28;20073;-61
2022/08/17 05:35:04;;;;;;;85.57;67.03;;;20.80;99.90;;;;;;5052881;28;20462;-63
2022/08/17 05:37:30;;;;;;;77.80;67.70;;;20.80;99.90;;;;;;5052281;28;20040;-62
2022/08/17 05:39:55;;;;;;;75.55;66.32;;;21.00;99.90;;;;;;5052126;28;20104;-62
2022/08/17 05:42:21;;;;;;;79.15;67.45;;;21.10;99.90;;;;;;5052469;28;20021;-62
2022/08/17 05:44:47;;;;;;;77.28;67.72;;;20.90;99.90;;;;;;5051989;28;20108;-63
2022/08/17 05:47:13;;;;;;;77.55;67.93;;;21.00;99.90;;;;;;5050565;28;20036;-63
2022/08/17 05:49:38;;;;;;;82.07;68.15;;;21.10;99.90;;;;;;5052067;28;20029;-63
2022/08/17 05:52:07;;;;;;;77.63;69.32;;;21.10;99.90;;;;;;5051593;28;20086;-63
2022/08/17 05:54:42;;;;;;;82.07;72.18;;;21.20;99.90;;;;;;5052131;28;20108;-63
2022/08/17 05:57:25;;;;;;;85.10;70.55;;;21.20;99.90;;;;;;5051948;28;20040;-63
2022/08/17 05:59:57;;;;;;;79.93;70.38;;;21.10;99.90;;;;;;5051842;28;20033;-63
2022/08/17 06:02:40;;;;;;;77.13;68.28;;;21.00;99.90;;;;;;5051609;28;20043;-63
2022/08/17 06:05:08;;;;;;;77.85;69.25;;;21.00;99.90;;;;;;5051097;28;20100;-63
2022/08/17 06:07:44;;;;;;;80.97;72.25;;;21.00;99.90;;;;;;5051497;28;20033;-63
2022/08/17 06:10:32;;;;;;;81.13;71.70;;;21.00;99.90;;;;;;5051666;28;20017;-63
2022/08/17 06:13:21;;;;;;;82.20;72.75;;;21.10;99.90;;;;;;5051568;28;20037;-62
2022/08/17 06:16:25;;;;;;;84.18;75.10;;;21.10;99.90;;;;;;5051854;28;20104;-63
2022/08/17 06:19:10;;;;;;;85.78;73.25;;;21.10;99.90;;;;;;5010135;28;20030;-63
2022/08/17 06:21:41;;;;;;;84.25;74.40;;;21.20;99.90;;;;;;5048948;28;20071;-63
2022/08/17 06:24:37;;;;;;;88.20;74.00;;;21.20;99.90;;;;;;5051267;28;20075;-62
2022/08/17 06:27:34;;;;;;;82.88;74.07;;;21.20;99.90;;;;;;5052092;28;20323;-63
2022/08/17 06:30:08;;;;;;;87.13;75.50;;;21.20;99.90;;;;;;5051770;28;20025;-63
2022/08/17 06:32:36;;;;;;;86.57;77.18;;;21.30;99.90;;;;;;5051334;28;20037;-64
2022/08/17 06:35:05;;;;;;;85.88;76.63;;;21.30;99.90;;;;;;5051543;28;20082;-63
2022/08/17 06:37:50;;;;;;;89.47;75.28;;;21.20;99.90;;;;;;5051188;28;20032;-63
2022/08/17 06:40:19;;;;;;;86.90;77.32;;;21.20;99.90;;;;;;5050996;28;20074;-64
2022/08/17 06:43:06;;;;;;;83.30;74.45;;;21.20;99.90;;;;;;5050885;28;20126;-63
2022/08/17 06:45:40;;;;;;;93.50;78.93;;;21.20;99.90;;;;;;5051383;28;20446;-63
2022/08/17 06:48:23;;;;;;;89.50;79.65;;;21.40;99.90;;;;;;5051460;28;20040;-63
2022/08/17 06:50:58;;;;;;;91.55;80.93;;;21.50;99.90;;;;;;5051280;28;20067;-63
2022/08/17 06:53:44;;;;;;;93.68;81.47;;;21.60;99.90;;;;;;5051065;28;20036;-63
2022/08/17 06:56:23;;;;;;;96.05;82.68;;;21.60;99.90;;;;;;5050845;28;20056;-63
2022/08/17 06:58:48;;;;;;;95.63;81.78;;;21.70;99.90;;;;;;5050954;28;20131;-63
2022/08/17 07:01:19;;;;;;;100.47;84.53;;;21.80;99.90;;;;;;5051015;28;20109;-62
2022/08/17 07:04:03;;;;;;;94.05;80.43;;;21.80;99.90;;;;;;5049632;28;20052;-62
2022/08/17 07:06:37;;;;;;;90.72;78.45;;;21.70;99.90;;;;;;5050876;28;20024;-63
2022/08/17 07:09:28;;;;;;;96.53;80.03;;;21.60;99.90;;;;;;5050805;28;20029;-63
2022/08/17 07:12:17;;;;;;;116.45;80.15;;;21.70;99.90;;;;;;5050156;28;20490;-63
2022/08/17 07:14:55;;;;;;;88.75;79.00;;;21.80;99.90;;;;;;5050840;28;20404;-63
2022/08/17 07:17:23;;;;;;;95.50;81.05;;;21.70;99.90;;;;;;5054798;28;20033;-63
2022/08/17 07:19:52;;;;;;;90.25;78.70;;;21.70;99.90;;;;;;5053488;28;20443;-63
2022/08/17 07:22:29;;;;;;;89.97;80.32;;;21.60;99.90;;;;;;5054466;28;20421;-64
2022/08/17 07:24:58;;;;;;;115.85;81.18;;;21.60;99.90;;;;;;5054625;28;20104;-61
2022/08/17 07:27:39;;;;;;;186.20;84.28;;;21.60;99.90;;;;;;5051508;28;20032;-62
2022/08/17 07:30:10;;;;;;;92.38;82.72;;;21.80;99.90;;;;;;5053556;28;20078;-62
2022/08/17 07:32:53;;;;;;;150.55;85.93;;;21.90;99.90;;;;;;5053235;28;20029;-62
2022/08/17 07:35:27;;;;;;;103.85;83.80;;;22.10;99.90;;;;;;5051842;28;20032;-63
2022/08/17 07:38:08;;;;;;;271.55;93.82;;;22.30;99.90;;;;;;5053710;28;20116;-61
2022/08/17 07:40:37;;;;;;;93.00;81.43;;;22.30;99.90;;;;;;5052536;28;20089;-62
2022/08/17 07:43:10;;;;;;;174.50;86.22;;;22.20;99.90;;;;;;5051847;28;20063;-63
2022/08/17 07:48:35;;;;;;;154.63;84.93;;;22.10;99.90;;;;;;5053537;28;20107;-63
2022/08/17 07:51:13;;;;;;;103.07;86.35;;;22.00;99.90;;;;;;5052632;28;20017;-64
2022/08/17 07:53:40;;;;;;;137.25;91.07;;;22.00;99.90;;;;;;5053334;28;20079;-63
2022/08/17 07:56:06;;;;;;;179.43;87.75;;;22.10;99.90;;;;;;5052450;28;20032;-63
2022/08/17 07:58:32;;;;;;;134.40;85.82;;;22.30;99.90;;;;;;5052754;28;20485;-63
2022/08/17 08:01:14;;;;;;;91.57;81.80;;;22.20;99.90;;;;;;5053169;28;20049;-65
2022/08/17 08:03:44;;;;;;;97.55;84.93;;;22.20;99.90;;;;;;5052150;28;20029;-63
2022/08/17 08:06:23;;;;;;;93.18;81.30;;;22.30;99.90;;;;;;5053414;28;20045;-64
2022/08/17 08:08:54;;;;;;;92.60;82.53;;;22.40;99.90;;;;;;5052120;28;20120;-64
2022/08/17 08:11:35;;;;;;;95.78;83.60;;;22.50;99.90;;;;;;5051632;28;20478;-64
2022/08/17 08:14:22;;;;;;;111.85;89.00;;;22.60;99.90;;;;;;5052183;28;20056;-63
2022/08/17 08:17:01;;;;;;;95.03;84.85;;;22.80;99.90;;;;;;5053177;28;20048;-64
2022/08/17 08:19:29;;;;;;;99.57;82.97;;;22.70;99.90;;;;;;5052251;28;20029;-63
2022/08/17 08:22:14;;;;;;;94.72;84.75;;;22.60;99.90;;;;;;5051601;28;20478;-64
2022/08/17 08:24:54;;;;;;;164.52;84.90;;;22.70;99.90;;;;;;5052794;28;20029;-63
2022/08/17 08:27:45;;;;;;;268.33;89.57;;;22.80;99.90;;;;;;5052711;28;20041;-63
2022/08/17 08:30:20;;;;;;;116.55;84.57;;;22.80;99.90;;;;;;5053630;28;20542;-63
2022/08/17 08:32:57;;;;;;;120.72;83.47;;;22.70;99.90;;;;;;5053264;28;20072;-63
2022/08/17 08:35:29;;;;;;;99.47;82.40;;;22.60;99.90;;;;;;5053567;28;20021;-63
2022/08/17 08:38:26;;;;;;;94.95;84.70;;;22.80;99.90;;;;;;5053678;28;20639;-63
2022/08/17 08:41:04;;;;;;;90.10;80.50;;;23.00;99.90;;;;;;5053266;28;20551;-63
2022/08/17 08:44:15;;;;;;;90.32;80.30;;;23.00;99.90;;;;;;5053219;28;20442;-63
2022/08/17 08:47:03;;;;;;;88.68;79.07;;;23.10;99.90;;;;;;5052639;28;20036;-63
2022/08/17 08:50:02;;;;;;;160.85;83.70;;;23.30;99.90;;;;;;5053502;28;20041;-63
2022/08/17 08:52:32;;;;;;;99.90;79.47;;;23.00;99.90;;;;;;5052889;28;20040;-63
2022/08/17 08:55:04;;;;;;;139.23;80.32;;;22.90;99.90;;;;;;5053310;28;20532;-64
2022/08/17 08:57:37;;;;;;;99.67;78.93;;;22.90;99.90;;;;;;5053655;28;20082;-64
2022/08/17 09:00:13;;;;;;;97.55;78.28;;;22.90;99.90;;;;;;5053510;28;20502;-63
2022/08/17 09:03:01;;;;;;;91.57;81.65;;;22.70;99.90;;;;;;5053579;28;20474;-63
2022/08/17 09:05:52;;;;;;;91.63;81.60;;;23.00;99.90;;;;;;5052657;28;20013;-63
2022/08/17 09:08:24;;;;;;;92.72;82.60;;;23.10;99.90;;;;;;5053077;28;20444;-63
2022/08/17 09:10:56;;;;;;;90.40;80.68;;;23.20;99.90;;;;;;5051567;28;20029;-64
2022/08/17 09:13:48;;;;;;;93.55;83.45;;;23.30;99.90;;;;;;5052822;28;20035;-63
2022/08/17 09:16:23;;;;;;;89.05;79.55;;;23.50;99.90;;;;;;5052987;28;20552;-64
2022/08/17 09:18:52;;;;;;;86.57;77.47;;;23.60;99.90;;;;;;5052905;28;20025;-64
2022/08/17 09:21:22;;;;;;;83.22;74.68;;;23.50;99.90;;;;;;5052946;28;20114;-64
2022/08/17 09:24:29;;;;;;;84.82;75.68;;;23.40;99.90;;;;;;5052775;28;20029;-63
2022/08/17 09:27:18;;;;;;;81.68;73.30;;;23.30;99.90;;;;;;5051981;28;20033;-63
2022/08/17 09:29:59;;;;;;;82.90;74.15;;;23.30;99.90;;;;;;5052977;28;20048;-63
2022/08/17 09:32:39;;;;;;;85.57;76.13;;;23.50;99.90;;;;;;5052564;28;20033;-63
2022/08/17 09:35:13;;;;;;;79.25;69.88;;;23.40;99.90;;;;;;5052285;28;20025;-63
2022/08/17 09:38:05;;;;;;;82.78;74.07;;;23.30;99.90;;;;;;5052017;28;20029;-63
2022/08/17 09:41:03;;;;;;;;;;;23.20;99.90;;;;;;5051870;28;20021;-63
2022/08/17 09:43:47;;;;;;;79.43;69.88;;;23.10;99.90;;;;;;5050882;28;20016;-64
2022/08/17 09:46:24;;;;;;;82.85;73.90;;;23.00;99.90;;;;;;5052416;28;20032;-62
2022/08/17 09:48:58;;;;;;;79.32;70.80;;;22.90;99.90;;;;;;5052323;28;20037;-62
2022/08/17 09:51:44;;;;;;;79.00;70.63;;;22.80;99.90;;;;;;5052434;28;20079;-63
2022/08/17 09:54:30;;;;;;;80.25;71.75;;;22.80;99.90;;;;;;5050468;28;20033;-64
2022/08/17 09:57:17;;;;;;;69.57;62.08;;;22.90;99.90;;;;;;5052031;28;20045;-63
2022/08/17 10:00:46;;;;;;;70.47;63.28;;;22.90;99.90;;;;;;5050433;28;20068;-63
2022/08/17 10:03:27;;;;;;;75.00;62.33;;;23.10;99.90;;;;;;5054216;28;20124;-62
2022/08/17 10:06:12;;;;;;;70.45;62.80;;;23.40;99.90;;;;;;5051950;28;20501;-63
2022/08/17 10:09:05;;;;;;;73.10;65.65;;;23.50;99.90;;;;;;5052270;28;20455;-62
2022/08/17 10:12:16;;;;;;;74.75;66.18;;;23.60;99.90;;;;;;5052086;28;20071;-62
2022/08/17 10:15:08;;;;;;;78.47;70.10;;;23.80;99.90;;;;;;5051935;28;20032;-64
2022/08/17 10:17:37;;;;;;;81.07;70.32;;;24.10;99.90;;;;;;5051556;28;20029;-64
2022/08/17 10:20:10;;;;;;;73.65;65.65;;;24.10;99.90;;;;;;5052474;28;20416;-64
2022/08/17 10:28:35;;;;;;;76.05;68.10;;;24.70;99.90;;;;;;5052236;28;20044;-63
2022/08/17 10:31:04;;;;;;;80.03;71.43;;;24.90;99.90;;;;;;5050455;28;20021;-62
2022/08/17 10:33:44;;;;;;;79.97;71.35;;;24.80;99.90;;;;;;5051611;28;20052;-63
2022/08/17 10:36:27;;;;;;;82.05;72.88;;;24.70;99.90;;;;;;5051588;28;20394;-63
2022/08/17 10:39:10;;;;;;;82.55;73.82;;;24.90;99.90;;;;;;5051433;28;20412;-63
2022/08/17 10:41:44;;;;;;;82.68;73.95;;;24.90;99.90;;;;;;5051357;28;20017;-62
2022/08/17 10:44:22;;;;;;;75.20;67.40;;;24.80;99.90;;;;;;5050853;28;20432;-63
2022/08/17 10:47:02;;;;;;;78.45;70.32;;;24.40;99.90;;;;;;5051827;28;20025;-64
2022/08/17 10:49:36;;;;;;;84.50;75.63;;;24.20;99.90;;;;;;5051018;28;20033;-63
2022/08/17 10:52:22;;;;;;;80.97;72.50;;;24.20;99.90;;;;;;5051152;28;20513;-63
2022/08/17 10:54:51;;;;;;;83.38;74.55;;;23.90;99.90;;;;;;5050660;28;20033;-62
2022/08/17 10:57:25;;;;;;;87.57;78.13;;;23.80;99.90;;;;;;5050793;28;20024;-62
2022/08/17 10:59:54;;;;;;;84.90;75.95;;;24.10;99.90;;;;;;5050798;28;20049;-63
2022/08/17 11:02:41;;;;;;;77.93;69.35;;;24.20;99.90;;;;;;5049935;28;20041;-62
2022/08/17 11:05:16;;;;;;;79.47;70.88;;;24.20;99.90;;;;;;5050810;28;20025;-63
2022/08/17 11:08:19;;;;;;;82.30;68.35;;;24.00;99.90;;;;;;5050832;28;20566;-62
2022/08/17 11:11:05;;;;;;;;;;;23.70;99.90;;;;;;5051335;28;20064;-62
2022/08/17 11:13:43;;;;;;;71.60;63.80;;;23.70;99.90;;;;;;5050876;28;19962;-63
2022/08/17 11:16:31;;;;;;;74.95;67.30;;;23.50;99.90;;;;;;5050625;28;20048;-62
2022/08/17 11:19:12;;;;;;;75.07;67.25;;;23.40;99.90;;;;;;5050814;28;20478;-64
2022/08/17 11:22:16;;;;;;;79.45;70.90;;;23.20;99.90;;;;;;5050655;28;20025;-63
2022/08/17 11:24:47;;;;;;;81.68;73.28;;;23.20;99.90;;;;;;5045228;28;20075;-63
2022/08/17 11:27:34;;;;;;;86.25;73.60;;;23.50;99.90;;;;;;5051000;28;20033;-62
2022/08/17 11:30:09;;;;;;;82.00;73.55;;;23.70;99.90;;;;;;5050911;28;20029;-63
2022/08/17 11:32:40;;;;;;;85.20;75.93;;;23.70;99.90;;;;;;5050584;28;20493;-63
2022/08/17 11:35:14;;;;;;;82.70;73.82;;;23.80;99.90;;;;;;5050605;28;20029;-64
2022/08/17 11:37:47;;;;;;;79.68;71.18;;;23.70;99.90;;;;;;5050741;28;20037;-63
2022/08/17 11:40:32;;;;;;;80.15;71.70;;;23.70;99.90;;;;;;5050780;28;20721;-63
2022/08/17 11:43:14;;;;;;;81.13;72.30;;;23.60;99.90;;;;;;5050468;28;20044;-63
2022/08/17 11:46:05;;;;;;;76.68;68.60;;;23.80;99.90;;;;;;5050949;28;20584;-63
2022/08/17 11:52:07;;;;;;;75.97;68.05;;;23.60;99.90;;;;;;5051154;28;20513;-64
2022/08/17 11:54:40;;;;;;;76.70;68.63;;;23.50;99.90;;;;;;5050538;28;20037;-63
2022/08/17 11:57:24;;;;;;;75.18;66.93;;;23.30;99.90;;;;;;5050633;28;20048;-62
2022/08/17 11:59:56;;;;;;;73.88;66.03;;;22.90;99.90;;;;;;5050753;28;20045;-63
2022/08/17 12:02:26;;;;;;;79.53;71.10;;;22.60;99.90;;;;;;5052008;28;20025;-64
2022/08/17 12:05:13;;;;;;;88.53;79.07;;;22.40;99.90;;;;;;5054718;28;20085;-63
2022/08/17 12:08:04;;;;;;;85.35;72.05;;;22.30;99.90;;;;;;5054617;28;20512;-62
2022/08/17 12:10:38;;;;;;;92.68;81.05;;;22.00;99.90;;;;;;5054298;28;20057;-62
2022/08/17 12:13:14;;;;;;;72.15;63.03;;;21.80;99.90;;;;;;5054048;28;20040;-63
2022/08/17 12:15:49;;;;;;;72.97;55.45;;;21.20;99.90;;;;;;5053978;28;20025;-66
2022/08/17 12:18:21;;;;;;;75.50;54.13;;;20.70;99.90;;;;;;5053977;28;20505;-67
2022/08/17 12:21:11;;;;;;;44.58;37.25;;;20.20;99.90;;;;;;5053840;28;20025;-66
2022/08/17 12:24:03;;;;;;;43.45;35.15;;;19.80;99.90;;;;;;5053810;28;20021;-67
2022/08/17 12:26:32;;;;;;;39.67;32.72;;;19.40;99.90;;;;;;5053790;28;20098;-63
2022/08/17 12:29:03;;;;;;;36.15;32.17;;;19.30;99.90;;;;;;5054121;28;20056;-66
2022/08/17 12:31:43;;;;;;;33.60;30.15;;;19.20;99.90;;;;;;5053671;28;20043;-68
2022/08/17 12:34:15;;;;;;;40.58;34.75;;;19.10;99.90;;;;;;5053743;28;20016;-66
2022/08/17 12:36:41;;;;;;;38.15;33.47;;;19.10;99.90;;;;;;5053735;28;20029;-64
2022/08/17 12:39:08;;;;;;;38.25;34.05;;;19.00;99.90;;;;;;5053542;28;20024;-65
2022/08/17 12:41:38;;;;;;;39.13;33.70;;;19.10;99.90;;;;;;5052056;28;20090;-65
2022/08/17 12:44:12;;;;;;;30.60;27.40;;;19.20;99.90;;;;;;5053585;28;20599;-64
2022/08/17 12:46:51;;;;;;;22.48;20.13;;;19.10;99.90;;;;;;5053515;28;20025;-64
2022/08/17 12:49:30;;;;;;;21.70;17.70;;;19.00;99.90;;;;;;5053508;28;20068;-64
2022/08/17 12:52:06;;;;;;;19.00;17.02;;;18.90;99.90;;;;;;5053342;28;20405;-64
2022/08/17 12:54:44;;;;;;;17.10;15.50;;;18.90;99.90;;;;;;5053498;28;20553;-64
2022/08/17 12:57:15;;;;;;;15.20;13.77;;;18.80;99.90;;;;;;5051921;28;20490;-65
2022/08/17 12:59:47;;;;;;;16.90;15.13;;;18.90;99.90;;;;;;5053163;28;20154;-65
2022/08/17 13:02:31;;;;;;;16.65;14.75;;;19.10;99.90;;;;;;5053325;28;20037;-64
2022/08/17 13:04:59;;;;;;;16.48;14.77;;;19.30;99.90;;;;;;5053039;28;20301;-65
2022/08/17 13:07:45;;;;;;;14.40;12.98;;;19.50;99.90;;;;;;5052971;28;20116;-64
2022/08/17 13:10:24;;;;;;;12.40;11.27;;;19.50;99.90;;;;;;5053295;28;20021;-63
2022/08/17 13:12:51;;;;;;;13.25;11.75;;;19.50;99.90;;;;;;5052742;28;20029;-65
2022/08/17 13:15:24;;;;;;;13.13;11.60;;;19.60;99.90;;;;;;5051693;28;20067;-64
2022/08/17 13:18:08;;;;;;;14.20;12.88;;;19.60;99.90;;;;;;5053109;28;20486;-64
2022/08/17 13:20:35;;;;;;;15.13;13.82;;;19.80;99.90;;;;;;5052656;28;20021;-64
2022/08/17 13:23:05;;;;;;;15.70;14.32;;;20.00;99.90;;;;;;5052609;28;20486;-63
2022/08/17 13:25:31;;;;;;;15.43;13.90;;;20.10;99.90;;;;;;5052873;28;20029;-61
2022/08/17 13:27:57;;;;;;;16.85;15.35;;;20.20;99.90;;;;;;5052891;28;20033;-61